< < Back
Terminal Aerodrome Forecast


Current Version              Previous Versions:   1  2  3  4  5  6  7  8  9  

Terminal Aerodrome Forecast

922
FTUS42 KILM 021722
TAFFLO
TAF
KFLO 021722Z 0218/0318 VRB05KT P6SM SCT050 SCT250
     FM030300 21004KT P6SM BKN080
     FM030800 28002KT 5SM BR BKN080
     FM031300 32005KT P6SM SCT080 SCT250=

Latest METAR

969
SAUS70 KWBC 031600 RRC
MTRFLO
METAR KFLO 031553Z VRB03KT 10SM CLR 30/23 A2996 RMK AO2 SLP141
T03000228


USA.gov is the U.S. government's official web portal to all federal, state and local government web resources and services.